createdAt,value
2023-03-25T00:01:17.369Z,100003.38
2023-03-25T00:03:50.895Z,100004.47
2023-03-25T00:06:17.766Z,100003.66
2023-03-25T00:08:44.165Z,99999.81
2023-03-25T00:11:10.494Z,99998.72
2023-03-25T00:13:36.957Z,99993.31
2023-03-25T00:16:04.460Z,99999.00
2023-03-25T00:18:35.296Z,100003.34
2023-03-25T00:21:03.413Z,100001.44
2023-03-25T00:23:31.267Z,100007.41
2023-03-25T00:26:00.365Z,100000.91
2023-03-25T00:28:30.753Z,100013.38
2023-03-25T00:31:11.306Z,100007.66
2023-03-25T00:33:37.873Z,100001.41
2023-03-25T00:36:05.393Z,99999.81
2023-03-25T00:38:35.253Z,100007.69
2023-03-25T00:41:26.025Z,99994.91
2023-03-25T00:43:54.588Z,99995.75
2023-03-25T00:46:22.824Z,99994.91
2023-03-25T00:48:50.705Z,100001.44
2023-03-25T00:51:21.223Z,99997.91
2023-03-25T00:53:53.128Z,100003.59
2023-03-25T00:56:20.703Z,99998.16
2023-03-25T00:58:47.121Z,100004.69
2023-03-25T01:01:23.206Z,100001.16
2023-03-25T01:03:57.652Z,99998.97
2023-03-25T01:06:45.993Z,99989.47
2023-03-25T01:09:15.438Z,99990.56
2023-03-25T01:11:44.210Z,99993.28
2023-03-25T01:14:17.535Z,99988.38
2023-03-25T01:16:44.630Z,99978.88
2023-03-25T01:19:12.375Z,99987.28
2023-03-25T01:21:40.150Z,99986.75
2023-03-25T01:24:07.929Z,99988.94
2023-03-25T01:26:34.599Z,99987.84
2023-03-25T01:29:01.024Z,99985.44
2023-03-25T01:31:30.154Z,99988.94
2023-03-25T01:33:57.809Z,99978.06
2023-03-25T01:36:30.419Z,99987.84
2023-03-25T01:38:59.130Z,99985.94
2023-03-25T01:41:33.203Z,99968.28
2023-03-25T01:44:14.944Z,99979.13
2023-03-25T01:46:45.509Z,99965.56
2023-03-25T01:49:24.612Z,99974.25
2023-03-25T01:51:55.053Z,99969.09
2023-03-25T01:54:21.613Z,99960.13
2023-03-25T01:56:50.722Z,99970.44
2023-03-25T01:59:20.045Z,99969.63
2023-03-25T02:01:47.100Z,99960.41
2023-03-25T02:04:17.253Z,99961.75
2023-03-25T02:06:46.303Z,99968.03
2023-03-25T02:09:16.474Z,99962.84
2023-03-25T02:11:42.976Z,99960.41
2023-03-25T02:14:13.709Z,99944.38
2023-03-25T02:17:10.997Z,99950.34
2023-03-25T02:20:11.107Z,99971.50
2023-03-25T02:22:55.619Z,99963.59
2023-03-25T02:25:46.938Z,99952.47
2023-03-25T02:28:29.155Z,99951.38
2023-03-25T02:31:11.527Z,99950.78
2023-03-25T02:34:06.835Z,99941.53
2023-03-25T02:36:48.703Z,99968.38
2023-03-25T02:39:29.950Z,99951.28
2023-03-25T02:42:30.358Z,99956.38
2023-03-25T02:45:03.784Z,99959.53
2023-03-25T02:47:44.474Z,99962.50
2023-03-25T02:50:27.374Z,99958.94
2023-03-25T02:53:04.386Z,99960.06
2023-03-25T02:55:33.304Z,99958.69
2023-03-25T02:58:04.311Z,99962.50
2023-03-25T03:00:31.476Z,99961.72
2023-03-25T03:03:01.346Z,99957.63
2023-03-25T03:05:33.618Z,99959.00
2023-03-25T03:08:32.378Z,99954.69
2023-03-25T03:11:07.934Z,99960.97
2023-03-25T03:13:57.905Z,99952.28
2023-03-25T03:16:42.657Z,99954.44
2023-03-25T03:19:38.309Z,99956.06
2023-03-25T03:22:14.165Z,99958.81
2023-03-25T03:24:46.984Z,99954.19
2023-03-25T03:27:33.760Z,99958.81
2023-03-25T03:30:14.139Z,99950.66
2023-03-25T03:32:49.815Z,99950.13
2023-03-25T03:35:27.502Z,99950.16
2023-03-25T03:38:01.661Z,99950.38
2023-03-25T03:40:31.425Z,99956.38
2023-03-25T03:43:03.255Z,99951.25
2023-03-25T03:45:53.887Z,99955.81
2023-03-25T03:48:28.270Z,99963.13
2023-03-25T03:51:04.872Z,99962.63
2023-03-25T03:53:36.479Z,99957.75
2023-03-25T03:56:09.659Z,99964.25
2023-03-25T03:58:43.214Z,99967.53
2023-03-25T04:01:27.883Z,99958.88
2023-03-25T04:03:59.579Z,99969.16
2023-03-25T04:06:56.671Z,99964.78
2023-03-25T04:09:34.786Z,99974.03
2023-03-25T04:12:10.754Z,99971.56
2023-03-25T04:14:38.750Z,99970.50
2023-03-25T04:17:06.416Z,99969.44
2023-03-25T04:19:34.064Z,99975.13
2023-03-25T04:22:01.940Z,99972.97
2023-03-25T04:24:32.437Z,99970.25
2023-03-25T04:27:03.321Z,99971.31
2023-03-25T04:29:33.744Z,99978.91
2023-03-25T04:32:01.477Z,99978.41
2023-03-25T04:34:28.446Z,99975.41
2023-03-25T04:36:57.289Z,99986.53
2023-03-25T04:39:25.544Z,99975.94
2023-03-25T04:42:03.260Z,99964.53
2023-03-25T04:44:33.498Z,99968.59
2023-03-25T04:47:02.224Z,99965.34
2023-03-25T04:49:28.619Z,99970.47
2023-03-25T04:51:55.577Z,99974.84
2023-03-25T04:54:23.439Z,99974.84
2023-03-25T04:56:51.282Z,99966.66
2023-03-25T04:59:19.469Z,99966.44
2023-03-25T05:01:46.144Z,99971.53
2023-03-25T05:04:17.144Z,99972.38
2023-03-25T05:06:47.035Z,99963.69
2023-03-25T05:09:22.194Z,99959.34
2023-03-25T05:11:50.260Z,99959.09
2023-03-25T05:14:19.218Z,99950.38
2023-03-25T05:16:46.543Z,99968.59
2023-03-25T05:19:14.688Z,99962.63
2023-03-25T05:21:42.274Z,99958.56
2023-03-25T05:24:11.368Z,99955.81
2023-03-25T05:26:39.936Z,99966.91
2023-03-25T05:29:15.738Z,99962.03
2023-03-25T05:31:48.391Z,99965.56
2023-03-25T05:34:16.988Z,99964.22
2023-03-25T05:36:43.624Z,99958.81
2023-03-25T05:39:11.184Z,99964.78
2023-03-25T05:41:41.493Z,99959.41
2023-03-25T05:44:10.223Z,99965.34
2023-03-25T05:46:36.642Z,99964.28
2023-03-25T05:49:03.168Z,99963.69
2023-03-25T05:51:38.513Z,99972.38
2023-03-25T05:54:10.834Z,99969.66
2023-03-25T05:56:38.016Z,99963.16
2023-03-25T05:59:04.888Z,99962.38
2023-03-25T06:01:34.177Z,99969.69
2023-03-25T06:04:02.249Z,99970.81
2023-03-25T06:06:30.351Z,99967.03
2023-03-25T06:08:56.835Z,99970.81
2023-03-25T06:11:23.255Z,99959.69
2023-03-25T06:13:49.883Z,99977.34
2023-03-25T06:16:18.973Z,99964.84
2023-03-25T06:18:50.406Z,99965.38
2023-03-25T06:21:20.649Z,99974.06
2023-03-25T06:23:50.444Z,99971.34
2023-03-25T06:26:17.922Z,99973.56
2023-03-25T06:28:44.877Z,99973.56
2023-03-25T06:31:20.412Z,99964.56
2023-03-25T06:33:48.461Z,99974.03
2023-03-25T06:36:18.801Z,99974.06
2023-03-25T06:38:46.714Z,99972.66
2023-03-25T06:41:20.345Z,99968.09
2023-03-25T06:43:48.278Z,99971.88
2023-03-25T06:46:14.924Z,99974.06
2023-03-25T06:48:41.378Z,99974.56
2023-03-25T06:51:08.212Z,99981.06
2023-03-25T06:53:34.725Z,99981.63
2023-03-25T06:56:01.112Z,99974.06
2023-03-25T06:58:34.935Z,99983.34
2023-03-25T07:01:06.812Z,99976.84
2023-03-25T07:03:34.964Z,99979.56
2023-03-25T07:06:01.391Z,99982.28
2023-03-25T07:08:27.781Z,99988.00
2023-03-25T07:10:54.182Z,99993.13
2023-03-25T07:13:20.716Z,100001.25
2023-03-25T07:15:47.158Z,100003.66
2023-03-25T07:18:13.553Z,100004.22
2023-03-25T07:20:39.989Z,99998.78
2023-03-25T07:23:12.689Z,99997.13
2023-03-25T07:25:39.102Z,100010.44
2023-03-25T07:28:05.451Z,100007.75
2023-03-25T07:30:31.827Z,100005.06
2023-03-25T07:32:58.763Z,100008.38
2023-03-25T07:35:25.216Z,100012.19
2023-03-25T07:37:51.622Z,100012.19
2023-03-25T07:40:18.197Z,100017.56
2023-03-25T07:42:45.577Z,100025.22
2023-03-25T07:45:12.357Z,100020.63
2023-03-25T07:47:38.873Z,100020.63
2023-03-25T07:50:06.025Z,100019.50
2023-03-25T07:52:32.607Z,100024.06
2023-03-25T07:55:00.715Z,100021.09
2023-03-25T07:57:27.291Z,100020.81
2023-03-25T07:59:53.860Z,100026.22
2023-03-25T08:02:20.507Z,100019.69
2023-03-25T08:04:47.089Z,100026.22
2023-03-25T08:07:13.448Z,100025.94
2023-03-25T08:09:41.536Z,100028.41
2023-03-25T08:12:08.508Z,100045.78
2023-03-25T08:14:34.889Z,100054.47
2023-03-25T08:17:01.438Z,100045.00
2023-03-25T08:19:27.941Z,100059.16
2023-03-25T08:21:54.241Z,100056.69
2023-03-25T08:24:20.872Z,100062.13
2023-03-25T08:26:48.081Z,100056.69
2023-03-25T08:29:17.368Z,100058.09
2023-03-25T08:31:46.921Z,100065.22
2023-03-25T08:34:14.095Z,100064.75
2023-03-25T08:36:40.615Z,100072.59
2023-03-25T08:39:11.564Z,100068.25
2023-03-25T08:41:39.531Z,100078.06
2023-03-25T08:44:06.950Z,100075.91
2023-03-25T08:46:33.477Z,100073.19
2023-03-25T08:48:59.879Z,100072.09
2023-03-25T08:51:26.282Z,100065.03
2023-03-25T08:53:52.665Z,100059.09
2023-03-25T08:56:19.062Z,100068.31
2023-03-25T08:58:45.566Z,100066.16
2023-03-25T09:01:12.274Z,100063.72
2023-03-25T09:03:40.852Z,100057.47
2023-03-25T09:06:08.998Z,100074.88
2023-03-25T09:08:37.335Z,100059.09
2023-03-25T09:11:04.366Z,100065.34
2023-03-25T09:13:31.538Z,100072.97
2023-03-25T09:15:58.762Z,100059.91
2023-03-25T09:18:25.227Z,100062.34
2023-03-25T09:20:51.992Z,100073.22
2023-03-25T09:23:18.501Z,100066.16
2023-03-25T09:25:46.221Z,100070.78
2023-03-25T09:28:12.598Z,100059.34
2023-03-25T09:30:38.951Z,100069.97
2023-03-25T09:33:05.790Z,100069.44
2023-03-25T09:35:32.595Z,100063.47
2023-03-25T09:37:59.184Z,100080.06
2023-03-25T09:40:25.758Z,100084.66
2023-03-25T09:43:13.345Z,100068.38
2023-03-25T09:45:47.356Z,100064.56
2023-03-25T09:48:27.076Z,100065.66
2023-03-25T09:50:53.874Z,100064.03
2023-03-25T09:53:58.498Z,100068.94
2023-03-25T09:56:30.883Z,100065.13
2023-03-25T09:59:05.686Z,100067.06
2023-03-25T10:01:42.432Z,100071.69
2023-03-25T10:04:23.498Z,100069.75
2023-03-25T10:07:03.438Z,100069.75
2023-03-25T10:09:52.544Z,100075.47
2023-03-25T10:12:32.439Z,100066.75
2023-03-25T10:15:25.780Z,100072.22
2023-03-25T10:18:12.815Z,100070.31
2023-03-25T10:20:47.448Z,100056.97
2023-03-25T10:23:21.594Z,100062.41
2023-03-25T10:25:54.706Z,100065.44
2023-03-25T10:28:33.061Z,100064.59
2023-03-25T10:31:00.144Z,100056.97
2023-03-25T10:33:37.204Z,100081.47
2023-03-25T10:36:07.504Z,100080.91
2023-03-25T10:38:36.286Z,100093.44
2023-03-25T10:41:17.893Z,100087.44
2023-03-25T10:43:44.273Z,100098.28
2023-03-25T10:46:25.841Z,100100.44
2023-03-25T10:48:52.444Z,100094.19
2023-03-25T10:51:35.645Z,100096.56
2023-03-25T10:54:02.646Z,100083.91
2023-03-25T10:56:40.502Z,100091.03
2023-03-25T10:59:22.895Z,100094.25
2023-03-25T11:01:50.678Z,100095.25
2023-03-25T11:04:19.857Z,100083.59
2023-03-25T11:06:52.513Z,100094.25
2023-03-25T11:09:30.465Z,100086.63
2023-03-25T11:12:01.137Z,100098.66
2023-03-25T11:14:29.217Z,100113.50
2023-03-25T11:17:05.700Z,100107.00
2023-03-25T11:19:53.475Z,100109.41
2023-03-25T11:22:26.402Z,100098.22
2023-03-25T11:24:59.758Z,100099.28
2023-03-25T11:27:29.062Z,100089.41
2023-03-25T11:30:01.447Z,100097.47
2023-03-25T11:32:36.732Z,100083.19
2023-03-25T11:35:18.399Z,100089.16
2023-03-25T11:37:49.078Z,100092.50
2023-03-25T11:40:17.950Z,100096.47
2023-03-25T11:42:49.737Z,100091.56
2023-03-25T11:45:24.546Z,100087.53
2023-03-25T11:47:52.516Z,100081.28
2023-03-25T11:50:22.584Z,100092.75
2023-03-25T11:52:52.316Z,100090.03
2023-03-25T11:55:25.025Z,100097.16
2023-03-25T11:57:54.558Z,100086.25
2023-03-25T12:00:31.488Z,100088.44
2023-03-25T12:03:20.395Z,100081.88
2023-03-25T12:06:16.425Z,100084.59
2023-03-25T12:08:59.973Z,100085.72
2023-03-25T12:11:54.821Z,100083.53
2023-03-25T12:14:55.278Z,100088.13
2023-03-25T12:17:37.136Z,100092.75
2023-03-25T12:20:28.507Z,100069.91
2023-03-25T12:23:01.357Z,100054.63
2023-03-25T12:25:39.745Z,100065.81
2023-03-25T12:28:38.605Z,100059.00
2023-03-25T12:31:11.189Z,100061.13
2023-03-25T12:34:01.661Z,100056.16
2023-03-25T12:36:42.707Z,100069.19
2023-03-25T12:39:42.911Z,100048.19
2023-03-25T12:42:27.802Z,100047.06
2023-03-25T12:45:03.927Z,100036.91
2023-03-25T12:47:33.278Z,100041.81
2023-03-25T12:50:22.324Z,100022.63
2023-03-25T12:53:13.547Z,100030.25
2023-03-25T12:56:01.768Z,100019.16
2023-03-25T12:58:40.341Z,100010.09
2023-03-25T13:01:24.203Z,100020.28
2023-03-25T13:04:13.349Z,100010.44
2023-03-25T13:06:48.478Z,100019.06
2023-03-25T13:09:25.622Z,100013.91
2023-03-25T13:11:56.901Z,100028.34
2023-03-25T13:14:51.038Z,100022.75
2023-03-25T13:17:44.198Z,100025.25
2023-03-25T13:20:12.138Z,100028.69
2023-03-25T13:22:44.360Z,100028.75
2023-03-25T13:25:20.554Z,100033.25
2023-03-25T13:27:49.730Z,100034.97
2023-03-25T13:30:29.138Z,100036.72
2023-03-25T13:33:01.809Z,100018.50
2023-03-25T13:35:44.952Z,100012.78
2023-03-25T13:38:19.269Z,100012.06
2023-03-25T13:40:58.172Z,100015.16
2023-03-25T13:43:42.888Z,100008.16
2023-03-25T13:46:13.673Z,100039.81
2023-03-25T13:48:58.187Z,100042.88
2023-03-25T13:51:24.817Z,100044.88
2023-03-25T13:53:56.811Z,100077.63
2023-03-25T13:56:41.639Z,100093.16
2023-03-25T13:59:31.184Z,100125.81
2023-03-25T14:02:39.850Z,100137.41
2023-03-25T14:05:16.856Z,100146.84
2023-03-25T14:07:49.671Z,100141.59
2023-03-25T14:10:38.361Z,100150.00
2023-03-25T14:13:09.896Z,100160.09
2023-03-25T14:15:39.236Z,100166.63
2023-03-25T14:18:13.325Z,100146.78
2023-03-25T14:20:48.347Z,100138.06
2023-03-25T14:23:22.534Z,100135.09
2023-03-25T14:25:54.470Z,100130.22
2023-03-25T14:28:37.572Z,100121.53
2023-03-25T14:31:31.721Z,100117.25
2023-03-25T14:34:02.984Z,100118.34
2023-03-25T14:36:52.300Z,100116.78
2023-03-25T14:39:24.870Z,100105.97
2023-03-25T14:41:56.663Z,100115.75
2023-03-25T14:44:28.749Z,100100.06
2023-03-25T14:47:16.252Z,100103.16
2023-03-25T14:50:05.263Z,100099.47
2023-03-25T14:52:46.648Z,100092.84
2023-03-25T14:55:25.854Z,100099.25
2023-03-25T14:57:59.699Z,100110.97
2023-03-25T15:00:34.132Z,100094.19
2023-03-25T15:03:10.740Z,100078.31
2023-03-25T15:05:37.879Z,100103.59
2023-03-25T15:08:04.615Z,100088.16
2023-03-25T15:10:39.449Z,100087.13
2023-03-25T15:13:32.046Z,100083.25
2023-03-25T15:16:04.140Z,100080.34
2023-03-25T15:18:36.973Z,100077.97
2023-03-25T15:21:04.580Z,100099.84
2023-03-25T15:23:36.767Z,100093.63
2023-03-25T15:26:04.973Z,100096.91
2023-03-25T15:29:13.618Z,100110.06
2023-03-25T15:31:49.424Z,100112.50
2023-03-25T15:34:41.107Z,100091.53
2023-03-25T15:37:30.332Z,100107.25
2023-03-25T15:40:34.930Z,100095.50
2023-03-25T15:43:22.745Z,100095.75
2023-03-25T15:46:21.540Z,100085.44
2023-03-25T15:49:22.877Z,100095.88
2023-03-25T15:52:24.486Z,100084.47
2023-03-25T15:55:02.975Z,100090.75
2023-03-25T15:57:34.564Z,100084.22
2023-03-25T16:00:14.214Z,100081.75
2023-03-25T16:02:49.391Z,100076.03
2023-03-25T16:05:16.971Z,100061.63
2023-03-25T16:07:45.854Z,100071.69
2023-03-25T16:10:35.964Z,100062.97
2023-03-25T16:13:07.257Z,100067.59
2023-03-25T16:15:36.888Z,100067.09
2023-03-25T16:18:07.411Z,100069.50
2023-03-25T16:20:36.619Z,100077.69
2023-03-25T16:23:07.519Z,100078.22
2023-03-25T16:25:38.031Z,100103.78
2023-03-25T16:28:07.438Z,100116.84
2023-03-25T16:30:36.745Z,100116.88
2023-03-25T16:33:12.534Z,100076.59
2023-03-25T16:35:49.424Z,100077.91
2023-03-25T16:38:20.010Z,100086.31
2023-03-25T16:40:49.684Z,100081.69
2023-03-25T16:43:23.173Z,100076.00
2023-03-25T16:45:51.766Z,100073.56
2023-03-25T16:48:23.591Z,100076.00
2023-03-25T16:50:54.228Z,100086.34
2023-03-25T16:53:22.540Z,100080.59
2023-03-25T16:55:52.966Z,100077.34
2023-03-25T16:58:25.022Z,100087.94
2023-03-25T17:00:55.350Z,100092.28
2023-03-25T17:03:46.333Z,100095.28
2023-03-25T17:06:27.494Z,100099.66
2023-03-25T17:08:56.551Z,100129.28
2023-03-25T17:11:27.595Z,100186.06
2023-03-25T17:14:00.262Z,100166.84
2023-03-25T17:16:33.063Z,100178.19
2023-03-25T17:19:00.989Z,100164.28
2023-03-25T17:21:33.971Z,100169.13
2023-03-25T17:24:22.053Z,100159.06
2023-03-25T17:27:04.024Z,100163.94
2023-03-25T17:29:30.534Z,100172.63
2023-03-25T17:31:59.138Z,100172.09
2023-03-25T17:34:27.475Z,100177.22
2023-03-25T17:37:03.844Z,100186.47
2023-03-25T17:39:32.907Z,100187.81
2023-03-25T17:42:19.443Z,100193.50
2023-03-25T17:44:45.911Z,100184.59
2023-03-25T17:47:18.552Z,100181.59
2023-03-25T17:49:45.195Z,100188.69
2023-03-25T17:52:11.546Z,100184.06
2023-03-25T17:54:38.015Z,100184.59
2023-03-25T17:57:09.263Z,100191.63
2023-03-25T17:59:35.713Z,100188.16
2023-03-25T18:02:02.172Z,100188.19
2023-03-25T18:04:28.527Z,100197.94
2023-03-25T18:06:54.890Z,100233.19
2023-03-25T18:09:24.092Z,100279.59
2023-03-25T18:11:53.411Z,100282.38
2023-03-25T18:14:24.479Z,100275.72
2023-03-25T18:16:51.660Z,100271.69
2023-03-25T18:19:21.546Z,100261.88
2023-03-25T18:21:48.066Z,100241.22
2023-03-25T18:24:14.904Z,100236.13
2023-03-25T18:26:43.511Z,100244.75
2023-03-25T18:29:31.091Z,100262.06
2023-03-25T18:31:58.603Z,100247.13
2023-03-25T18:34:26.059Z,100238.41
2023-03-25T18:36:53.897Z,100238.88
2023-03-25T18:39:26.114Z,100249.72
2023-03-25T18:41:52.765Z,100267.69
2023-03-25T18:44:19.198Z,100276.38
2023-03-25T18:46:46.416Z,100265.03
2023-03-25T18:49:18.538Z,100288.28
2023-03-25T18:51:48.122Z,100295.28
2023-03-25T18:54:15.356Z,100300.44
2023-03-25T18:56:42.113Z,100316.25
2023-03-25T18:59:18.617Z,100283.31
2023-03-25T19:01:45.190Z,100299.91
2023-03-25T19:04:11.643Z,100282.50
2023-03-25T19:06:39.193Z,100270.59
2023-03-25T19:09:08.481Z,100276.56
2023-03-25T19:11:35.678Z,100267.38
2023-03-25T19:14:02.022Z,100283.72
2023-03-25T19:16:28.466Z,100273.38
2023-03-25T19:18:54.837Z,100270.91
2023-03-25T19:21:21.306Z,100278.78
2023-03-25T19:23:47.928Z,100273.88
2023-03-25T19:26:14.724Z,100278.44
2023-03-25T19:28:41.330Z,100273.88
2023-03-25T19:31:08.260Z,100273.88
2023-03-25T19:33:34.873Z,100259.88
2023-03-25T19:36:04.432Z,100267.47
2023-03-25T19:38:32.804Z,100260.69
2023-03-25T19:41:10.822Z,100255.59
2023-03-25T19:43:37.933Z,100255.41
2023-03-25T19:46:05.775Z,100252.75
2023-03-25T19:48:32.860Z,100247.63
2023-03-25T19:50:59.627Z,100246.34
2023-03-25T19:53:27.256Z,100243.38
2023-03-25T19:55:54.685Z,100244.72
2023-03-25T19:58:22.983Z,100241.44
2023-03-25T20:00:49.965Z,100247.69
2023-03-25T20:03:16.421Z,100249.06
2023-03-25T20:05:43.024Z,100250.72
2023-03-25T20:08:10.601Z,100244.47
2023-03-25T20:10:38.991Z,100248.25
2023-03-25T20:13:05.882Z,100251.03
2023-03-25T20:15:33.108Z,100253.78
2023-03-25T20:17:59.699Z,100248.34
2023-03-25T20:20:26.297Z,100252.16
2023-03-25T20:22:53.089Z,100242.41
2023-03-25T20:25:19.681Z,100246.75
2023-03-25T20:27:46.228Z,100238.13
2023-03-25T20:30:15.479Z,100243.28
2023-03-25T20:32:44.226Z,100251.44
2023-03-25T20:35:13.320Z,100242.19
2023-03-25T20:37:41.180Z,100248.97
2023-03-25T20:40:11.614Z,100244.56
2023-03-25T20:42:43.633Z,100245.69
2023-03-25T20:45:12.374Z,100242.41
2023-03-25T20:47:38.846Z,100238.63
2023-03-25T20:50:07.267Z,100234.28
2023-03-25T20:52:35.808Z,100249.47
2023-03-25T20:55:02.502Z,100250.09
2023-03-25T20:57:28.816Z,100249.59
2023-03-25T20:59:56.423Z,100258.88
2023-03-25T21:02:22.884Z,100253.50
2023-03-25T21:04:49.820Z,100250.28
2023-03-25T21:07:19.023Z,100269.59
2023-03-25T21:09:47.229Z,100256.28
2023-03-25T21:12:13.754Z,100266.91
2023-03-25T21:14:40.158Z,100266.09
2023-03-25T21:17:06.865Z,100271.53
2023-03-25T21:19:33.625Z,100273.44
2023-03-25T21:21:59.991Z,100274.84
2023-03-25T21:24:27.007Z,100273.25
2023-03-25T21:26:53.466Z,100270.53
2023-03-25T21:29:20.968Z,100276.00
2023-03-25T21:31:47.633Z,100282.56
2023-03-25T21:34:15.784Z,100274.41
2023-03-25T21:36:43.366Z,100281.47
2023-03-25T21:39:10.603Z,100282.03
2023-03-25T21:41:37.389Z,100283.66
2023-03-25T21:44:05.376Z,100277.69
2023-03-25T21:46:33.510Z,100286.34
2023-03-25T21:49:01.216Z,100281.22
2023-03-25T21:51:30.336Z,100277.72
2023-03-25T21:53:58.328Z,100273.91
2023-03-25T21:56:27.198Z,100282.59
2023-03-25T21:58:53.852Z,100269.84
2023-03-25T22:01:28.513Z,100276.63
2023-03-25T22:04:00.099Z,100282.06
2023-03-25T22:06:29.501Z,100283.41
2023-03-25T22:08:59.340Z,100286.38
2023-03-25T22:11:30.609Z,100290.44
2023-03-25T22:13:58.191Z,100296.69
2023-03-25T22:16:25.262Z,100307.28
2023-03-25T22:18:52.047Z,100297.00
2023-03-25T22:21:24.600Z,100315.50
2023-03-25T22:23:54.682Z,100306.00
2023-03-25T22:26:23.018Z,100303.28
2023-03-25T22:28:54.387Z,100315.81
2023-03-25T22:31:25.790Z,100313.13
2023-03-25T22:33:55.032Z,100320.69
2023-03-25T22:36:21.488Z,100316.88
2023-03-25T22:38:52.236Z,100327.22
2023-03-25T22:41:19.532Z,100326.38
2023-03-25T22:43:46.556Z,100329.88
2023-03-25T22:46:13.080Z,100333.41
2023-03-25T22:48:39.982Z,100329.16
2023-03-25T22:51:11.943Z,100321.25
2023-03-25T22:53:38.537Z,100330.50
2023-03-25T22:56:05.494Z,100333.78
2023-03-25T22:58:32.341Z,100334.53
2023-03-25T23:01:02.705Z,100337.25
2023-03-25T23:03:30.094Z,100340.25
2023-03-25T23:06:06.330Z,100343.00
2023-03-25T23:08:36.886Z,100347.91
2023-03-25T23:11:26.836Z,100341.94
2023-03-25T23:13:56.661Z,100342.25
2023-03-25T23:16:25.650Z,100345.75
2023-03-25T23:18:52.794Z,100352.81
2023-03-25T23:21:22.367Z,100358.78
2023-03-25T23:23:52.644Z,100346.25
2023-03-25T23:26:24.429Z,100344.66
2023-03-25T23:28:51.324Z,100348.41
2023-03-25T23:31:28.533Z,100350.06
2023-03-25T23:33:58.372Z,100346.25
2023-03-25T23:36:25.958Z,100343.56
2023-03-25T23:38:53.829Z,100344.09
2023-03-25T23:41:22.964Z,100347.38
2023-03-25T23:43:50.387Z,100347.38
2023-03-25T23:46:21.236Z,100338.97
2023-03-25T23:48:48.758Z,100326.28
2023-03-25T23:51:19.952Z,100331.66
2023-03-25T23:53:48.123Z,100332.19
2023-03-25T23:56:17.074Z,100332.19
2023-03-25T23:58:44.280Z,100336.53
